sensor_id;sensor_type;location;lat;lon;timestamp;P1;durP1;ratioP1;P2;durP2;ratioP2
1214;SDS011;597;51.998;5.880;2022-07-03T00:02:24;3.17;;;2.03;;
1214;SDS011;597;51.998;5.880;2022-07-03T00:04:49;4.77;;;2.73;;
1214;SDS011;597;51.998;5.880;2022-07-03T00:07:14;5.80;;;1.90;;
1214;SDS011;597;51.998;5.880;2022-07-03T00:09:39;3.53;;;1.93;;
1214;SDS011;597;51.998;5.880;2022-07-03T00:12:05;3.03;;;2.77;;
1214;SDS011;597;51.998;5.880;2022-07-03T00:14:30;3.20;;;2.50;;
1214;SDS011;597;51.998;5.880;2022-07-03T00:16:57;2.53;;;2.00;;
1214;SDS011;597;51.998;5.880;2022-07-03T00:19:22;2.40;;;2.20;;
1214;SDS011;597;51.998;5.880;2022-07-03T00:21:50;3.63;;;2.77;;
1214;SDS011;597;51.998;5.880;2022-07-03T00:26:42;8.50;;;2.60;;
1214;SDS011;597;51.998;5.880;2022-07-03T00:29:08;8.20;;;3.73;;
1214;SDS011;597;51.998;5.880;2022-07-03T00:31:34;7.23;;;2.10;;
1214;SDS011;597;51.998;5.880;2022-07-03T00:34:00;6.53;;;3.00;;
1214;SDS011;597;51.998;5.880;2022-07-03T00:36:35;4.03;;;2.43;;
1214;SDS011;597;51.998;5.880;2022-07-03T00:39:00;6.27;;;2.20;;
1214;SDS011;597;51.998;5.880;2022-07-03T00:41:27;4.83;;;2.10;;
1214;SDS011;597;51.998;5.880;2022-07-03T00:43:53;6.33;;;2.70;;
1214;SDS011;597;51.998;5.880;2022-07-03T00:46:21;5.80;;;2.40;;
1214;SDS011;597;51.998;5.880;2022-07-03T00:48:46;12.93;;;2.47;;
1214;SDS011;597;51.998;5.880;2022-07-03T00:51:14;5.00;;;2.87;;
1214;SDS011;597;51.998;5.880;2022-07-03T00:53:40;3.40;;;2.30;;
1214;SDS011;597;51.998;5.880;2022-07-03T00:56:06;2.53;;;2.17;;
1214;SDS011;597;51.998;5.880;2022-07-03T00:58:35;2.83;;;2.23;;
1214;SDS011;597;51.998;5.880;2022-07-03T01:01:00;3.43;;;2.70;;
1214;SDS011;597;51.998;5.880;2022-07-03T01:03:26;3.03;;;2.50;;
1214;SDS011;597;51.998;5.880;2022-07-03T01:05:55;3.60;;;2.43;;
1214;SDS011;597;51.998;5.880;2022-07-03T01:16:24;5.70;;;2.90;;
1214;SDS011;597;51.998;5.880;2022-07-03T01:18:54;4.27;;;2.80;;
1214;SDS011;597;51.998;5.880;2022-07-03T01:21:28;6.20;;;3.47;;
1214;SDS011;597;51.998;5.880;2022-07-03T01:26:40;4.13;;;2.83;;
1214;SDS011;597;51.998;5.880;2022-07-03T01:29:08;4.90;;;4.40;;
1214;SDS011;597;51.998;5.880;2022-07-03T01:31:35;3.63;;;3.10;;
1214;SDS011;597;51.998;5.880;2022-07-03T01:34:02;6.03;;;3.50;;
1214;SDS011;597;51.998;5.880;2022-07-03T01:36:29;6.07;;;3.10;;
1214;SDS011;597;51.998;5.880;2022-07-03T01:38:55;9.77;;;4.00;;
1214;SDS011;597;51.998;5.880;2022-07-03T01:41:22;4.10;;;3.70;;
1214;SDS011;597;51.998;5.880;2022-07-03T01:43:49;4.57;;;3.90;;
1214;SDS011;597;51.998;5.880;2022-07-03T01:46:18;7.73;;;6.33;;
1214;SDS011;597;51.998;5.880;2022-07-03T01:48:44;9.43;;;6.33;;
1214;SDS011;597;51.998;5.880;2022-07-03T01:51:13;8.27;;;7.43;;
1214;SDS011;597;51.998;5.880;2022-07-03T01:53:41;11.10;;;7.90;;
1214;SDS011;597;51.998;5.880;2022-07-03T01:56:08;12.47;;;9.50;;
1214;SDS011;597;51.998;5.880;2022-07-03T01:58:34;10.57;;;9.13;;
1214;SDS011;597;51.998;5.880;2022-07-03T02:01:01;9.23;;;8.33;;
1214;SDS011;597;51.998;5.880;2022-07-03T02:03:29;10.60;;;8.70;;
1214;SDS011;597;51.998;5.880;2022-07-03T02:06:05;10.43;;;9.20;;
1214;SDS011;597;51.998;5.880;2022-07-03T02:08:45;9.97;;;8.97;;
1214;SDS011;597;51.998;5.880;2022-07-03T02:13:40;10.77;;;9.77;;
1214;SDS011;597;51.998;5.880;2022-07-03T02:16:09;11.23;;;10.20;;
1214;SDS011;597;51.998;5.880;2022-07-03T02:18:37;10.03;;;9.00;;
1214;SDS011;597;51.998;5.880;2022-07-03T02:21:12;10.83;;;9.73;;
1214;SDS011;597;51.998;5.880;2022-07-03T02:26:13;12.30;;;10.00;;
1214;SDS011;597;51.998;5.880;2022-07-03T02:28:50;10.73;;;9.53;;
1214;SDS011;597;51.998;5.880;2022-07-03T02:31:19;11.10;;;10.00;;
1214;SDS011;597;51.998;5.880;2022-07-03T02:33:46;11.33;;;10.20;;
1214;SDS011;597;51.998;5.880;2022-07-03T02:36:12;10.07;;;9.07;;
1214;SDS011;597;51.998;5.880;2022-07-03T02:38:39;10.80;;;9.80;;
1214;SDS011;597;51.998;5.880;2022-07-03T02:41:08;13.40;;;10.07;;
1214;SDS011;597;51.998;5.880;2022-07-03T02:43:38;11.00;;;9.90;;
1214;SDS011;597;51.998;5.880;2022-07-03T02:46:14;13.87;;;12.40;;
1214;SDS011;597;51.998;5.880;2022-07-03T02:49:02;14.27;;;12.60;;
1214;SDS011;597;51.998;5.880;2022-07-03T02:51:33;16.03;;;10.30;;
1214;SDS011;597;51.998;5.880;2022-07-03T02:54:02;12.20;;;10.50;;
1214;SDS011;597;51.998;5.880;2022-07-03T02:57:16;12.07;;;10.20;;
1214;SDS011;597;51.998;5.880;2022-07-03T03:01:57;10.50;;;9.60;;
1214;SDS011;597;51.998;5.880;2022-07-03T03:04:29;15.50;;;11.07;;
1214;SDS011;597;51.998;5.880;2022-07-03T03:06:55;12.13;;;10.70;;
1214;SDS011;597;51.998;5.880;2022-07-03T03:09:21;11.17;;;10.07;;
1214;SDS011;597;51.998;5.880;2022-07-03T03:11:49;13.63;;;11.30;;
1214;SDS011;597;51.998;5.880;2022-07-03T03:14:17;13.33;;;11.23;;
1214;SDS011;597;51.998;5.880;2022-07-03T03:16:48;12.93;;;10.83;;
1214;SDS011;597;51.998;5.880;2022-07-03T03:19:13;12.47;;;11.27;;
1214;SDS011;597;51.998;5.880;2022-07-03T03:21:46;11.77;;;10.67;;
1214;SDS011;597;51.998;5.880;2022-07-03T03:24:16;16.90;;;11.97;;
1214;SDS011;597;51.998;5.880;2022-07-03T03:26:42;11.37;;;9.80;;
1214;SDS011;597;51.998;5.880;2022-07-03T03:29:08;16.50;;;10.90;;
1214;SDS011;597;51.998;5.880;2022-07-03T03:31:33;12.30;;;11.10;;
1214;SDS011;597;51.998;5.880;2022-07-03T03:33:58;12.53;;;10.33;;
1214;SDS011;597;51.998;5.880;2022-07-03T03:36:24;12.37;;;10.33;;
1214;SDS011;597;51.998;5.880;2022-07-03T03:38:49;12.83;;;10.53;;
1214;SDS011;597;51.998;5.880;2022-07-03T03:41:15;14.73;;;10.20;;
1214;SDS011;597;51.998;5.880;2022-07-03T03:43:41;10.80;;;9.70;;
1214;SDS011;597;51.998;5.880;2022-07-03T03:46:06;15.67;;;9.37;;
1214;SDS011;597;51.998;5.880;2022-07-03T03:48:32;11.27;;;9.83;;
1214;SDS011;597;51.998;5.880;2022-07-03T03:50:58;10.97;;;9.87;;
1214;SDS011;597;51.998;5.880;2022-07-03T03:53:24;12.60;;;9.97;;
1214;SDS011;597;51.998;5.880;2022-07-03T03:58:18;13.03;;;8.90;;
1214;SDS011;597;51.998;5.880;2022-07-03T04:00:43;10.30;;;9.27;;
1214;SDS011;597;51.998;5.880;2022-07-03T04:03:08;9.83;;;8.73;;
1214;SDS011;597;51.998;5.880;2022-07-03T04:05:33;10.60;;;9.20;;
1214;SDS011;597;51.998;5.880;2022-07-03T04:07:59;9.90;;;8.90;;
1214;SDS011;597;51.998;5.880;2022-07-03T04:10:24;8.67;;;7.80;;
1214;SDS011;597;51.998;5.880;2022-07-03T04:12:49;9.47;;;7.70;;
1214;SDS011;597;51.998;5.880;2022-07-03T04:15:14;17.17;;;7.30;;
1214;SDS011;597;51.998;5.880;2022-07-03T04:17:40;15.53;;;6.77;;
1214;SDS011;597;51.998;5.880;2022-07-03T04:20:05;6.83;;;6.00;;
1214;SDS011;597;51.998;5.880;2022-07-03T04:22:30;10.63;;;5.77;;
1214;SDS011;597;51.998;5.880;2022-07-03T04:24:56;14.73;;;5.90;;
1214;SDS011;597;51.998;5.880;2022-07-03T04:27:21;9.23;;;6.13;;
1214;SDS011;597;51.998;5.880;2022-07-03T04:29:46;7.90;;;5.30;;
1214;SDS011;597;51.998;5.880;2022-07-03T04:32:11;12.27;;;5.13;;
1214;SDS011;597;51.998;5.880;2022-07-03T04:34:36;10.70;;;5.20;;
1214;SDS011;597;51.998;5.880;2022-07-03T04:37:02;6.40;;;4.90;;
1214;SDS011;597;51.998;5.880;2022-07-03T04:39:27;6.90;;;5.00;;
1214;SDS011;597;51.998;5.880;2022-07-03T04:41:53;4.93;;;4.37;;
1214;SDS011;597;51.998;5.880;2022-07-03T04:44:18;6.03;;;4.47;;
1214;SDS011;597;51.998;5.880;2022-07-03T04:46:43;6.17;;;4.00;;
1214;SDS011;597;51.998;5.880;2022-07-03T04:49:08;7.97;;;4.10;;
1214;SDS011;597;51.998;5.880;2022-07-03T04:51:34;4.13;;;3.40;;
1214;SDS011;597;51.998;5.880;2022-07-03T04:53:59;7.20;;;3.23;;
1214;SDS011;597;51.998;5.880;2022-07-03T04:56:24;4.80;;;3.40;;
1214;SDS011;597;51.998;5.880;2022-07-03T04:58:50;8.23;;;3.80;;
1214;SDS011;597;51.998;5.880;2022-07-03T05:01:15;4.50;;;4.10;;
1214;SDS011;597;51.998;5.880;2022-07-03T05:03:41;5.07;;;3.40;;
1214;SDS011;597;51.998;5.880;2022-07-03T05:06:06;7.93;;;3.53;;
1214;SDS011;597;51.998;5.880;2022-07-03T05:08:31;7.17;;;3.27;;
1214;SDS011;597;51.998;5.880;2022-07-03T05:10:57;3.77;;;3.40;;
1214;SDS011;597;51.998;5.880;2022-07-03T05:13:22;7.93;;;3.27;;
1214;SDS011;597;51.998;5.880;2022-07-03T05:15:47;11.03;;;3.87;;
1214;SDS011;597;51.998;5.880;2022-07-03T05:18:12;3.83;;;3.10;;
1214;SDS011;597;51.998;5.880;2022-07-03T05:20:38;4.00;;;2.90;;
1214;SDS011;597;51.998;5.880;2022-07-03T05:23:03;9.73;;;2.93;;
1214;SDS011;597;51.998;5.880;2022-07-03T05:25:29;3.73;;;3.30;;
1214;SDS011;597;51.998;5.880;2022-07-03T05:27:54;5.30;;;3.10;;
1214;SDS011;597;51.998;5.880;2022-07-03T05:30:20;3.43;;;2.83;;
1214;SDS011;597;51.998;5.880;2022-07-03T05:32:46;3.73;;;2.47;;
1214;SDS011;597;51.998;5.880;2022-07-03T05:35:11;12.20;;;2.53;;
1214;SDS011;597;51.998;5.880;2022-07-03T05:37:36;4.00;;;2.80;;
1214;SDS011;597;51.998;5.880;2022-07-03T05:40:01;5.63;;;2.90;;
1214;SDS011;597;51.998;5.880;2022-07-03T05:42:28;3.70;;;3.40;;
1214;SDS011;597;51.998;5.880;2022-07-03T05:44:53;5.20;;;3.07;;
1214;SDS011;597;51.998;5.880;2022-07-03T05:47:19;7.40;;;2.50;;
1214;SDS011;597;51.998;5.880;2022-07-03T05:49:44;3.70;;;2.47;;
1214;SDS011;597;51.998;5.880;2022-07-03T05:52:10;4.80;;;2.83;;
1214;SDS011;597;51.998;5.880;2022-07-03T05:54:35;3.83;;;2.90;;
1214;SDS011;597;51.998;5.880;2022-07-03T05:57:00;7.83;;;3.60;;
1214;SDS011;597;51.998;5.880;2022-07-03T05:59:26;4.23;;;3.30;;
1214;SDS011;597;51.998;5.880;2022-07-03T06:01:51;5.30;;;3.13;;
1214;SDS011;597;51.998;5.880;2022-07-03T06:04:16;3.87;;;3.47;;
1214;SDS011;597;51.998;5.880;2022-07-03T06:06:41;6.00;;;3.70;;
1214;SDS011;597;51.998;5.880;2022-07-03T06:09:07;6.73;;;3.27;;
1214;SDS011;597;51.998;5.880;2022-07-03T06:11:32;4.37;;;3.03;;
1214;SDS011;597;51.998;5.880;2022-07-03T06:13:57;6.33;;;4.20;;
1214;SDS011;597;51.998;5.880;2022-07-03T06:16:22;6.40;;;2.53;;
1214;SDS011;597;51.998;5.880;2022-07-03T06:18:48;8.80;;;3.20;;
1214;SDS011;597;51.998;5.880;2022-07-03T06:21:14;4.60;;;2.80;;
1214;SDS011;597;51.998;5.880;2022-07-03T06:23:39;5.07;;;2.40;;
1214;SDS011;597;51.998;5.880;2022-07-03T06:26:04;7.30;;;3.20;;
1214;SDS011;597;51.998;5.880;2022-07-03T06:28:29;6.07;;;2.40;;
1214;SDS011;597;51.998;5.880;2022-07-03T06:30:55;6.70;;;2.63;;
1214;SDS011;597;51.998;5.880;2022-07-03T06:33:20;4.73;;;2.70;;
1214;SDS011;597;51.998;5.880;2022-07-03T06:35:45;7.30;;;3.80;;
1214;SDS011;597;51.998;5.880;2022-07-03T06:38:10;7.10;;;3.10;;
1214;SDS011;597;51.998;5.880;2022-07-03T06:40:36;6.50;;;2.43;;
1214;SDS011;597;51.998;5.880;2022-07-03T06:43:01;4.30;;;2.60;;
1214;SDS011;597;51.998;5.880;2022-07-03T06:45:27;10.20;;;3.10;;
1214;SDS011;597;51.998;5.880;2022-07-03T06:47:52;3.40;;;2.50;;
1214;SDS011;597;51.998;5.880;2022-07-03T06:50:17;7.10;;;3.03;;
1214;SDS011;597;51.998;5.880;2022-07-03T06:52:43;3.67;;;2.30;;
1214;SDS011;597;51.998;5.880;2022-07-03T06:55:08;8.10;;;3.27;;
1214;SDS011;597;51.998;5.880;2022-07-03T06:57:33;3.00;;;2.43;;
1214;SDS011;597;51.998;5.880;2022-07-03T06:59:59;5.73;;;2.43;;
1214;SDS011;597;51.998;5.880;2022-07-03T07:02:24;5.37;;;2.87;;
1214;SDS011;597;51.998;5.880;2022-07-03T07:04:49;4.73;;;2.70;;
1214;SDS011;597;51.998;5.880;2022-07-03T07:07:14;5.80;;;2.60;;
1214;SDS011;597;51.998;5.880;2022-07-03T07:09:39;9.67;;;2.40;;
1214;SDS011;597;51.998;5.880;2022-07-03T07:12:05;8.30;;;2.90;;
1214;SDS011;597;51.998;5.880;2022-07-03T07:14:30;6.00;;;3.00;;
1214;SDS011;597;51.998;5.880;2022-07-03T07:16:56;2.93;;;2.53;;
1214;SDS011;597;51.998;5.880;2022-07-03T07:19:21;5.77;;;3.20;;
1214;SDS011;597;51.998;5.880;2022-07-03T07:21:46;4.43;;;2.70;;
1214;SDS011;597;51.998;5.880;2022-07-03T07:24:11;6.87;;;2.80;;
1214;SDS011;597;51.998;5.880;2022-07-03T07:26:36;4.40;;;2.27;;
1214;SDS011;597;51.998;5.880;2022-07-03T07:29:02;10.93;;;2.63;;
1214;SDS011;597;51.998;5.880;2022-07-03T07:31:27;6.30;;;2.90;;
1214;SDS011;597;51.998;5.880;2022-07-03T07:33:52;3.70;;;2.30;;
1214;SDS011;597;51.998;5.880;2022-07-03T07:36:18;11.57;;;2.43;;
1214;SDS011;597;51.998;5.880;2022-07-03T07:38:43;4.27;;;2.07;;
1214;SDS011;597;51.998;5.880;2022-07-03T07:41:09;4.07;;;2.20;;
1214;SDS011;597;51.998;5.880;2022-07-03T07:43:34;2.50;;;2.13;;
1214;SDS011;597;51.998;5.880;2022-07-03T07:46:00;4.70;;;2.43;;
1214;SDS011;597;51.998;5.880;2022-07-03T07:48:25;5.13;;;2.17;;
1214;SDS011;597;51.998;5.880;2022-07-03T07:50:50;5.60;;;1.77;;
1214;SDS011;597;51.998;5.880;2022-07-03T07:53:16;2.60;;;2.00;;
1214;SDS011;597;51.998;5.880;2022-07-03T07:55:41;6.03;;;2.00;;
1214;SDS011;597;51.998;5.880;2022-07-03T07:58:07;3.40;;;2.50;;
1214;SDS011;597;51.998;5.880;2022-07-03T08:00:33;5.23;;;2.40;;
1214;SDS011;597;51.998;5.880;2022-07-03T08:02:58;4.27;;;1.80;;
1214;SDS011;597;51.998;5.880;2022-07-03T08:05:42;4.23;;;1.83;;
1214;SDS011;597;51.998;5.880;2022-07-03T08:08:09;5.30;;;1.83;;
1214;SDS011;597;51.998;5.880;2022-07-03T08:10:39;10.37;;;2.80;;
1214;SDS011;597;51.998;5.880;2022-07-03T08:13:05;7.67;;;2.57;;
1214;SDS011;597;51.998;5.880;2022-07-03T08:15:31;4.93;;;1.97;;
1214;SDS011;597;51.998;5.880;2022-07-03T08:17:56;6.67;;;2.37;;
1214;SDS011;597;51.998;5.880;2022-07-03T08:20:22;6.13;;;2.23;;
1214;SDS011;597;51.998;5.880;2022-07-03T08:22:48;4.60;;;2.03;;
1214;SDS011;597;51.998;5.880;2022-07-03T08:25:13;4.37;;;1.97;;
1214;SDS011;597;51.998;5.880;2022-07-03T08:27:38;4.10;;;2.17;;
1214;SDS011;597;51.998;5.880;2022-07-03T08:30:04;4.43;;;2.00;;
1214;SDS011;597;51.998;5.880;2022-07-03T08:32:29;3.73;;;1.67;;
1214;SDS011;597;51.998;5.880;2022-07-03T08:34:54;2.47;;;1.87;;
1214;SDS011;597;51.998;5.880;2022-07-03T08:37:20;5.13;;;1.57;;
1214;SDS011;597;51.998;5.880;2022-07-03T08:39:45;4.00;;;2.27;;
1214;SDS011;597;51.998;5.880;2022-07-03T08:42:10;3.73;;;1.80;;
1214;SDS011;597;51.998;5.880;2022-07-03T08:44:36;2.97;;;2.30;;
1214;SDS011;597;51.998;5.880;2022-07-03T08:47:02;2.13;;;1.80;;
1214;SDS011;597;51.998;5.880;2022-07-03T08:49:28;4.60;;;2.33;;
1214;SDS011;597;51.998;5.880;2022-07-03T08:51:54;8.73;;;2.03;;
1214;SDS011;597;51.998;5.880;2022-07-03T08:54:19;2.60;;;2.07;;
1214;SDS011;597;51.998;5.880;2022-07-03T08:56:44;4.70;;;2.30;;
1214;SDS011;597;51.998;5.880;2022-07-03T08:59:10;5.10;;;2.30;;
1214;SDS011;597;51.998;5.880;2022-07-03T09:01:36;4.97;;;2.20;;
1214;SDS011;597;51.998;5.880;2022-07-03T09:04:08;3.77;;;2.00;;
1214;SDS011;597;51.998;5.880;2022-07-03T09:06:33;3.57;;;2.10;;
1214;SDS011;597;51.998;5.880;2022-07-03T09:09:00;4.33;;;1.73;;
1214;SDS011;597;51.998;5.880;2022-07-03T09:11:25;7.47;;;2.20;;
1214;SDS011;597;51.998;5.880;2022-07-03T09:13:50;4.03;;;2.20;;
1214;SDS011;597;51.998;5.880;2022-07-03T09:16:16;4.03;;;1.97;;
1214;SDS011;597;51.998;5.880;2022-07-03T09:18:42;4.20;;;1.90;;
1214;SDS011;597;51.998;5.880;2022-07-03T09:21:08;4.70;;;2.50;;
1214;SDS011;597;51.998;5.880;2022-07-03T09:23:43;3.80;;;1.80;;
1214;SDS011;597;51.998;5.880;2022-07-03T09:26:15;1.87;;;1.53;;
1214;SDS011;597;51.998;5.880;2022-07-03T09:31:08;4.70;;;2.20;;
1214;SDS011;597;51.998;5.880;2022-07-03T09:33:33;5.50;;;2.27;;
1214;SDS011;597;51.998;5.880;2022-07-03T09:35:58;4.90;;;2.50;;
1214;SDS011;597;51.998;5.880;2022-07-03T09:38:24;4.73;;;2.57;;
1214;SDS011;597;51.998;5.880;2022-07-03T09:40:50;5.57;;;1.97;;
1214;SDS011;597;51.998;5.880;2022-07-03T09:43:21;3.33;;;2.13;;
1214;SDS011;597;51.998;5.880;2022-07-03T09:45:56;2.97;;;2.00;;
1214;SDS011;597;51.998;5.880;2022-07-03T09:50:47;3.43;;;1.73;;
1214;SDS011;597;51.998;5.880;2022-07-03T09:53:12;3.77;;;1.97;;
1214;SDS011;597;51.998;5.880;2022-07-03T09:55:38;4.57;;;1.70;;
1214;SDS011;597;51.998;5.880;2022-07-03T09:58:03;4.83;;;1.93;;
1214;SDS011;597;51.998;5.880;2022-07-03T10:00:29;2.63;;;1.90;;
1214;SDS011;597;51.998;5.880;2022-07-03T10:05:25;3.60;;;1.60;;
1214;SDS011;597;51.998;5.880;2022-07-03T10:08:09;5.30;;;1.57;;
1214;SDS011;597;51.998;5.880;2022-07-03T10:10:40;4.70;;;2.23;;
1214;SDS011;597;51.998;5.880;2022-07-03T10:13:05;4.67;;;1.70;;
1214;SDS011;597;51.998;5.880;2022-07-03T10:15:33;8.10;;;2.97;;
1214;SDS011;597;51.998;5.880;2022-07-03T10:18:01;7.33;;;2.53;;
1214;SDS011;597;51.998;5.880;2022-07-03T10:20:39;3.50;;;1.87;;
1214;SDS011;597;51.998;5.880;2022-07-03T10:23:04;5.73;;;1.90;;
1214;SDS011;597;51.998;5.880;2022-07-03T10:25:30;3.47;;;1.83;;
1214;SDS011;597;51.998;5.880;2022-07-03T10:27:55;5.30;;;2.20;;
1214;SDS011;597;51.998;5.880;2022-07-03T10:30:21;3.37;;;1.83;;
1214;SDS011;597;51.998;5.880;2022-07-03T10:32:48;2.27;;;1.93;;
1214;SDS011;597;51.998;5.880;2022-07-03T10:35:15;3.53;;;2.00;;
1214;SDS011;597;51.998;5.880;2022-07-03T10:40:43;3.20;;;1.97;;
1214;SDS011;597;51.998;5.880;2022-07-03T10:43:26;4.10;;;2.10;;
1214;SDS011;597;51.998;5.880;2022-07-03T10:46:14;3.10;;;2.33;;
1214;SDS011;597;51.998;5.880;2022-07-03T10:51:18;4.80;;;1.73;;
1214;SDS011;597;51.998;5.880;2022-07-03T10:53:43;3.07;;;2.53;;
1214;SDS011;597;51.998;5.880;2022-07-03T10:56:09;4.00;;;2.00;;
1214;SDS011;597;51.998;5.880;2022-07-03T10:59:16;2.17;;;1.63;;
1214;SDS011;597;51.998;5.880;2022-07-03T11:01:29;2.83;;;1.90;;
1214;SDS011;597;51.998;5.880;2022-07-03T11:03:58;3.40;;;2.30;;
1214;SDS011;597;51.998;5.880;2022-07-03T11:09:08;4.00;;;1.83;;
1214;SDS011;597;51.998;5.880;2022-07-03T11:16:46;1.57;;;1.40;;
1214;SDS011;597;51.998;5.880;2022-07-03T11:19:12;2.17;;;1.50;;
1214;SDS011;597;51.998;5.880;2022-07-03T11:21:37;4.60;;;2.03;;
1214;SDS011;597;51.998;5.880;2022-07-03T11:24:10;3.27;;;2.20;;
1214;SDS011;597;51.998;5.880;2022-07-03T11:26:39;3.10;;;1.90;;
1214;SDS011;597;51.998;5.880;2022-07-03T11:29:04;5.63;;;1.83;;
1214;SDS011;597;51.998;5.880;2022-07-03T11:31:30;3.87;;;1.67;;
1214;SDS011;597;51.998;5.880;2022-07-03T11:33:56;2.50;;;2.07;;
1214;SDS011;597;51.998;5.880;2022-07-03T11:44:00;5.13;;;1.80;;
1214;SDS011;597;51.998;5.880;2022-07-03T11:46:30;2.87;;;1.67;;
1214;SDS011;597;51.998;5.880;2022-07-03T11:49:05;4.20;;;1.50;;
1214;SDS011;597;51.998;5.880;2022-07-03T11:51:30;2.87;;;1.40;;
1214;SDS011;597;51.998;5.880;2022-07-03T11:53:56;1.97;;;1.63;;
1214;SDS011;597;51.998;5.880;2022-07-03T11:56:21;1.97;;;1.57;;
1214;SDS011;597;51.998;5.880;2022-07-03T11:58:47;1.90;;;1.63;;
1214;SDS011;597;51.998;5.880;2022-07-03T12:03:54;2.30;;;1.63;;
1214;SDS011;597;51.998;5.880;2022-07-03T12:06:26;1.87;;;1.03;;
1214;SDS011;597;51.998;5.880;2022-07-03T12:08:57;3.70;;;1.87;;
1214;SDS011;597;51.998;5.880;2022-07-03T12:11:23;1.87;;;1.10;;
1214;SDS011;597;51.998;5.880;2022-07-03T12:13:48;3.10;;;1.83;;
1214;SDS011;597;51.998;5.880;2022-07-03T12:16:15;2.20;;;1.60;;
1214;SDS011;597;51.998;5.880;2022-07-03T12:21:12;2.10;;;1.37;;
1214;SDS011;597;51.998;5.880;2022-07-03T12:23:42;2.57;;;1.30;;
1214;SDS011;597;51.998;5.880;2022-07-03T12:26:07;2.60;;;1.43;;
1214;SDS011;597;51.998;5.880;2022-07-03T12:28:33;3.30;;;1.70;;
1214;SDS011;597;51.998;5.880;2022-07-03T12:30:58;4.43;;;1.70;;
1214;SDS011;597;51.998;5.880;2022-07-03T12:33:24;1.87;;;1.53;;
1214;SDS011;597;51.998;5.880;2022-07-03T12:36:08;1.97;;;1.40;;
1214;SDS011;597;51.998;5.880;2022-07-03T12:38:33;7.00;;;2.00;;
1214;SDS011;597;51.998;5.880;2022-07-03T12:41:01;2.27;;;1.40;;
1214;SDS011;597;51.998;5.880;2022-07-03T12:43:26;3.87;;;1.57;;
1214;SDS011;597;51.998;5.880;2022-07-03T12:45:52;2.60;;;1.60;;
1214;SDS011;597;51.998;5.880;2022-07-03T12:48:17;2.47;;;1.57;;
1214;SDS011;597;51.998;5.880;2022-07-03T12:50:46;3.20;;;1.40;;
1214;SDS011;597;51.998;5.880;2022-07-03T12:53:11;3.47;;;1.67;;
1214;SDS011;597;51.998;5.880;2022-07-03T12:55:50;2.83;;;1.40;;
1214;SDS011;597;51.998;5.880;2022-07-03T12:58:16;2.80;;;1.27;;
1214;SDS011;597;51.998;5.880;2022-07-03T13:01:00;1.67;;;1.40;;
1214;SDS011;597;51.998;5.880;2022-07-03T13:03:28;3.80;;;2.53;;
1214;SDS011;597;51.998;5.880;2022-07-03T13:05:53;2.53;;;1.93;;
1214;SDS011;597;51.998;5.880;2022-07-03T13:08:19;4.83;;;2.23;;
1214;SDS011;597;51.998;5.880;2022-07-03T13:10:44;5.47;;;1.87;;
1214;SDS011;597;51.998;5.880;2022-07-03T13:13:18;5.00;;;1.87;;
1214;SDS011;597;51.998;5.880;2022-07-03T13:15:43;3.70;;;1.80;;
1214;SDS011;597;51.998;5.880;2022-07-03T13:18:11;3.40;;;1.77;;
1214;SDS011;597;51.998;5.880;2022-07-03T13:20:36;2.77;;;2.00;;
1214;SDS011;597;51.998;5.880;2022-07-03T13:23:02;2.83;;;1.80;;
1214;SDS011;597;51.998;5.880;2022-07-03T13:25:29;2.73;;;1.80;;
1214;SDS011;597;51.998;5.880;2022-07-03T13:28:07;4.37;;;1.77;;
1214;SDS011;597;51.998;5.880;2022-07-03T13:30:33;4.30;;;1.90;;
1214;SDS011;597;51.998;5.880;2022-07-03T13:32:58;3.60;;;2.10;;
1214;SDS011;597;51.998;5.880;2022-07-03T13:35:23;2.63;;;2.10;;
1214;SDS011;597;51.998;5.880;2022-07-03T13:37:48;2.20;;;1.70;;
1214;SDS011;597;51.998;5.880;2022-07-03T13:40:14;5.40;;;2.43;;
1214;SDS011;597;51.998;5.880;2022-07-03T13:42:39;4.77;;;1.90;;
1214;SDS011;597;51.998;5.880;2022-07-03T13:45:04;3.60;;;1.80;;
1214;SDS011;597;51.998;5.880;2022-07-03T13:47:30;2.70;;;1.90;;
1214;SDS011;597;51.998;5.880;2022-07-03T13:49:55;2.20;;;1.47;;
1214;SDS011;597;51.998;5.880;2022-07-03T13:52:20;2.60;;;2.30;;
1214;SDS011;597;51.998;5.880;2022-07-03T13:54:45;2.37;;;2.00;;
1214;SDS011;597;51.998;5.880;2022-07-03T13:57:11;1.87;;;1.77;;
1214;SDS011;597;51.998;5.880;2022-07-03T13:59:36;3.60;;;1.90;;
1214;SDS011;597;51.998;5.880;2022-07-03T14:02:01;3.47;;;1.73;;
1214;SDS011;597;51.998;5.880;2022-07-03T14:04:26;2.83;;;1.70;;
1214;SDS011;597;51.998;5.880;2022-07-03T14:06:52;2.57;;;2.00;;
1214;SDS011;597;51.998;5.880;2022-07-03T14:09:17;4.97;;;1.87;;
1214;SDS011;597;51.998;5.880;2022-07-03T14:11:42;2.70;;;2.30;;
1214;SDS011;597;51.998;5.880;2022-07-03T14:14:07;4.37;;;2.33;;
1214;SDS011;597;51.998;5.880;2022-07-03T14:16:33;2.20;;;2.00;;
1214;SDS011;597;51.998;5.880;2022-07-03T14:18:58;4.20;;;2.17;;
1214;SDS011;597;51.998;5.880;2022-07-03T14:21:23;2.60;;;1.70;;
1214;SDS011;597;51.998;5.880;2022-07-03T14:23:48;2.07;;;1.90;;
1214;SDS011;597;51.998;5.880;2022-07-03T14:26:14;3.90;;;1.90;;
1214;SDS011;597;51.998;5.880;2022-07-03T14:28:39;8.47;;;3.83;;
1214;SDS011;597;51.998;5.880;2022-07-03T14:31:23;3.97;;;2.00;;
1214;SDS011;597;51.998;5.880;2022-07-03T14:33:49;6.20;;;2.00;;
1214;SDS011;597;51.998;5.880;2022-07-03T14:36:15;5.30;;;2.90;;
1214;SDS011;597;51.998;5.880;2022-07-03T14:38:41;7.70;;;2.33;;
1214;SDS011;597;51.998;5.880;2022-07-03T14:41:06;3.67;;;2.40;;
1214;SDS011;597;51.998;5.880;2022-07-03T14:43:31;3.30;;;1.90;;
1214;SDS011;597;51.998;5.880;2022-07-03T14:45:57;2.53;;;1.70;;
1214;SDS011;597;51.998;5.880;2022-07-03T14:48:22;5.00;;;2.10;;
1214;SDS011;597;51.998;5.880;2022-07-03T14:50:47;3.70;;;2.07;;
1214;SDS011;597;51.998;5.880;2022-07-03T14:53:12;3.67;;;2.10;;
1214;SDS011;597;51.998;5.880;2022-07-03T14:55:39;9.03;;;2.23;;
1214;SDS011;597;51.998;5.880;2022-07-03T14:58:08;4.73;;;2.20;;
1214;SDS011;597;51.998;5.880;2022-07-03T15:00:34;3.70;;;2.27;;
1214;SDS011;597;51.998;5.880;2022-07-03T15:03:05;5.77;;;2.23;;
1214;SDS011;597;51.998;5.880;2022-07-03T15:05:32;5.57;;;2.40;;
1214;SDS011;597;51.998;5.880;2022-07-03T15:10:25;4.80;;;2.13;;
1214;SDS011;597;51.998;5.880;2022-07-03T15:12:53;3.90;;;2.20;;
1214;SDS011;597;51.998;5.880;2022-07-03T15:15:20;3.03;;;2.10;;
1214;SDS011;597;51.998;5.880;2022-07-03T15:17:49;2.73;;;2.30;;
1214;SDS011;597;51.998;5.880;2022-07-03T15:20:15;3.07;;;2.10;;
1214;SDS011;597;51.998;5.880;2022-07-03T15:22:42;2.23;;;1.73;;
1214;SDS011;597;51.998;5.880;2022-07-03T15:25:08;58.50;;;4.93;;
1214;SDS011;597;51.998;5.880;2022-07-03T15:27:34;3.37;;;2.03;;
1214;SDS011;597;51.998;5.880;2022-07-03T15:29:59;5.80;;;1.93;;
1214;SDS011;597;51.998;5.880;2022-07-03T15:32:25;4.60;;;1.90;;
1214;SDS011;597;51.998;5.880;2022-07-03T15:34:50;3.83;;;2.17;;
1214;SDS011;597;51.998;5.880;2022-07-03T15:39:42;2.53;;;2.33;;
1214;SDS011;597;51.998;5.880;2022-07-03T15:42:13;5.57;;;2.23;;
1214;SDS011;597;51.998;5.880;2022-07-03T15:50:09;3.73;;;2.07;;
1214;SDS011;597;51.998;5.880;2022-07-03T15:52:41;4.03;;;2.03;;
1214;SDS011;597;51.998;5.880;2022-07-03T15:55:09;10.97;;;3.07;;
1214;SDS011;597;51.998;5.880;2022-07-03T15:57:42;5.23;;;2.30;;
1214;SDS011;597;51.998;5.880;2022-07-03T16:00:10;2.43;;;1.83;;
1214;SDS011;597;51.998;5.880;2022-07-03T16:02:39;4.73;;;2.03;;
1214;SDS011;597;51.998;5.880;2022-07-03T16:05:10;2.80;;;1.77;;
1214;SDS011;597;51.998;5.880;2022-07-03T16:07:39;6.23;;;2.30;;
1214;SDS011;597;51.998;5.880;2022-07-03T16:10:06;3.93;;;1.90;;
1214;SDS011;597;51.998;5.880;2022-07-03T16:12:32;1.73;;;1.40;;
1214;SDS011;597;51.998;5.880;2022-07-03T16:14:57;3.67;;;2.10;;
1214;SDS011;597;51.998;5.880;2022-07-03T16:17:24;2.13;;;1.70;;
1214;SDS011;597;51.998;5.880;2022-07-03T16:19:49;3.27;;;1.83;;
1214;SDS011;597;51.998;5.880;2022-07-03T16:22:16;4.10;;;1.70;;
1214;SDS011;597;51.998;5.880;2022-07-03T16:24:41;3.93;;;1.80;;
1214;SDS011;597;51.998;5.880;2022-07-03T16:27:10;2.97;;;1.53;;
1214;SDS011;597;51.998;5.880;2022-07-03T16:29:36;2.70;;;1.80;;
1214;SDS011;597;51.998;5.880;2022-07-03T16:32:02;2.97;;;1.90;;
1214;SDS011;597;51.998;5.880;2022-07-03T16:34:38;3.40;;;2.10;;